createdAt,value
2023-05-18T00:00:34.636Z,0.00
2023-05-18T00:01:34.656Z,0.00
2023-05-18T00:02:34.692Z,0.00
2023-05-18T00:03:34.788Z,0.00
2023-05-18T00:04:34.699Z,0.00
2023-05-18T00:05:34.823Z,0.00
2023-05-18T00:06:34.573Z,0.00
2023-05-18T00:07:34.568Z,0.00
2023-05-18T00:08:34.563Z,0.00
2023-05-18T00:09:34.557Z,0.00
2023-05-18T00:10:34.564Z,0.00
2023-05-18T00:11:34.526Z,0.00
2023-05-18T00:12:34.524Z,0.00
2023-05-18T00:13:34.521Z,0.00
2023-05-18T00:14:34.489Z,0.00
2023-05-18T00:15:34.486Z,0.00
2023-05-18T00:16:34.617Z,0.00
2023-05-18T00:17:34.488Z,0.00
2023-05-18T00:18:34.536Z,0.00
2023-05-18T00:19:34.436Z,0.00
2023-05-18T00:20:34.422Z,0.00
2023-05-18T00:21:34.430Z,0.00
2023-05-18T00:22:34.412Z,0.00
2023-05-18T00:23:34.416Z,0.00
2023-05-18T00:24:36.861Z,0.00
2023-05-18T00:25:34.379Z,0.00
2023-05-18T00:26:34.365Z,0.00
2023-05-18T00:27:34.371Z,0.00
2023-05-18T00:28:34.343Z,0.00
2023-05-18T00:29:34.339Z,0.00
2023-05-18T00:30:34.325Z,0.00
2023-05-18T00:31:34.381Z,0.00
2023-05-18T00:32:34.386Z,0.00
2023-05-18T00:33:34.288Z,0.00
2023-05-18T00:34:34.276Z,0.00
2023-05-18T00:35:34.270Z,0.00
2023-05-18T00:36:34.268Z,0.00
2023-05-18T00:37:34.251Z,0.00
2023-05-18T00:38:34.244Z,0.00
2023-05-18T00:39:34.232Z,0.00
2023-05-18T00:40:34.212Z,0.00
2023-05-18T00:41:34.228Z,0.00
2023-05-18T00:42:34.197Z,0.00
2023-05-18T00:43:34.183Z,0.00
2023-05-18T00:44:34.171Z,0.00
2023-05-18T00:45:34.321Z,0.00
2023-05-18T00:46:34.334Z,0.00
2023-05-18T00:47:34.208Z,0.00
2023-05-18T00:48:34.126Z,0.00
2023-05-18T00:49:34.128Z,0.00
2023-05-18T00:50:34.126Z,0.00
2023-05-18T00:51:34.126Z,0.00
2023-05-18T00:52:34.087Z,0.00
2023-05-18T00:53:34.083Z,0.00
2023-05-18T00:54:34.071Z,0.00
2023-05-18T00:55:34.233Z,0.00
2023-05-18T00:56:34.133Z,0.00
2023-05-18T00:57:34.034Z,0.00
2023-05-18T00:58:34.021Z,0.00
2023-05-18T00:59:34.030Z,0.00
2023-05-18T01:00:34.108Z,0.00
2023-05-18T01:01:34.060Z,0.00
2023-05-18T01:02:34.035Z,0.00
2023-05-18T01:03:34.095Z,0.00
2023-05-18T01:04:33.979Z,0.00
2023-05-18T01:05:33.957Z,0.00
2023-05-18T01:06:33.941Z,0.00
2023-05-18T01:07:33.938Z,0.00
2023-05-18T01:08:33.922Z,0.00
2023-05-18T01:09:33.917Z,0.00
2023-05-18T01:10:33.890Z,0.00
2023-05-18T01:11:34.034Z,0.00
2023-05-18T01:12:33.881Z,0.00
2023-05-18T01:13:33.889Z,0.00
2023-05-18T01:14:33.854Z,0.00
2023-05-18T01:15:33.852Z,0.00
2023-05-18T01:16:33.867Z,0.00
2023-05-18T01:17:33.949Z,0.00
2023-05-18T01:18:33.844Z,0.00
2023-05-18T01:19:33.816Z,0.00
2023-05-18T01:20:33.785Z,0.00
2023-05-18T01:21:33.782Z,0.00
2023-05-18T01:22:33.768Z,0.00
2023-05-18T01:23:33.777Z,0.00
2023-05-18T01:24:33.740Z,0.00
2023-05-18T01:25:33.747Z,0.00
2023-05-18T01:26:33.729Z,0.00
2023-05-18T01:27:33.719Z,0.00
2023-05-18T01:28:33.720Z,0.00
2023-05-18T01:29:33.701Z,0.00
2023-05-18T01:30:33.678Z,0.00
2023-05-18T01:31:33.711Z,0.00
2023-05-18T01:32:33.708Z,0.00
2023-05-18T01:33:33.649Z,0.00
2023-05-18T01:34:33.635Z,0.00
2023-05-18T01:35:33.648Z,0.00
2023-05-18T01:36:33.671Z,0.00
2023-05-18T01:37:33.632Z,0.00
2023-05-18T01:38:33.586Z,0.00
2023-05-18T01:39:33.584Z,0.00
2023-05-18T01:40:33.571Z,0.00
2023-05-18T01:41:33.593Z,0.00
2023-05-18T01:42:33.557Z,0.00
2023-05-18T01:43:33.544Z,0.00
2023-05-18T01:44:33.526Z,0.00
2023-05-18T01:45:33.532Z,0.00
2023-05-18T01:46:33.559Z,0.00
2023-05-18T01:47:33.651Z,0.00
2023-05-18T01:48:33.488Z,0.00
2023-05-18T01:49:33.487Z,0.00
2023-05-18T01:50:33.458Z,0.00
2023-05-18T01:51:33.459Z,0.00
2023-05-18T01:52:33.452Z,0.00
2023-05-18T01:53:33.443Z,0.00
2023-05-18T01:54:33.420Z,0.00
2023-05-18T01:55:33.436Z,0.00
2023-05-18T01:56:33.421Z,0.00
2023-05-18T01:57:33.397Z,0.00
2023-05-18T01:58:33.393Z,0.00
2023-05-18T01:59:33.373Z,0.00
2023-05-18T02:00:33.373Z,0.00
2023-05-18T02:01:33.378Z,0.00
2023-05-18T02:02:33.420Z,0.00
2023-05-18T02:03:33.571Z,0.00
2023-05-18T02:04:33.314Z,0.00
2023-05-18T02:05:33.328Z,0.00
2023-05-18T02:06:33.302Z,0.00
2023-05-18T02:07:33.297Z,0.00
2023-05-18T02:08:33.274Z,0.00
2023-05-18T02:09:33.291Z,0.00
2023-05-18T02:10:33.313Z,0.00
2023-05-18T02:11:33.249Z,0.00
2023-05-18T02:12:33.233Z,0.00
2023-05-18T02:13:33.224Z,0.00
2023-05-18T02:14:33.221Z,0.00
2023-05-18T02:15:33.221Z,0.00
2023-05-18T02:16:33.264Z,0.00
2023-05-18T02:17:33.184Z,0.00
2023-05-18T02:18:33.157Z,0.00
2023-05-18T02:19:33.207Z,0.00
2023-05-18T02:20:33.143Z,0.00
2023-05-18T02:21:33.127Z,0.00
2023-05-18T02:22:33.129Z,0.00
2023-05-18T02:23:33.135Z,0.00
2023-05-18T02:24:33.110Z,0.00
2023-05-18T02:25:33.159Z,0.00
2023-05-18T02:26:33.086Z,0.00
2023-05-18T02:27:33.074Z,0.00
2023-05-18T02:28:33.168Z,0.00
2023-05-18T02:29:33.042Z,0.00
2023-05-18T02:30:33.031Z,0.00
2023-05-18T02:31:33.053Z,0.00
2023-05-18T02:32:33.071Z,0.00
2023-05-18T02:33:33.005Z,0.00
2023-05-18T02:34:33.058Z,0.00
2023-05-18T02:35:33.048Z,0.00
2023-05-18T02:36:32.968Z,0.00
2023-05-18T02:37:32.973Z,0.00
2023-05-18T02:38:32.961Z,0.00
2023-05-18T02:39:32.949Z,0.00
2023-05-18T02:40:32.932Z,0.00
2023-05-18T02:41:32.908Z,0.00
2023-05-18T02:42:32.909Z,0.00
2023-05-18T02:43:32.897Z,0.00
2023-05-18T02:44:32.903Z,0.00
2023-05-18T02:45:33.120Z,0.00
2023-05-18T02:46:32.883Z,0.00
2023-05-18T02:47:32.944Z,0.00
2023-05-18T02:48:32.832Z,0.00
2023-05-18T02:49:32.831Z,0.00
2023-05-18T02:50:32.831Z,0.00
2023-05-18T02:51:32.815Z,0.00
2023-05-18T02:52:32.804Z,0.00
2023-05-18T02:53:32.799Z,0.00
2023-05-18T02:54:32.772Z,0.00
2023-05-18T02:55:32.832Z,0.00
2023-05-18T02:56:32.796Z,0.00
2023-05-18T02:57:32.756Z,0.00
2023-05-18T02:58:32.734Z,0.00
2023-05-18T02:59:32.744Z,0.00
2023-05-18T03:00:32.748Z,0.00
2023-05-18T03:01:32.795Z,0.00
2023-05-18T03:02:32.767Z,4.00
2023-05-18T03:03:32.757Z,4.00
2023-05-18T03:04:32.688Z,4.00
2023-05-18T03:05:32.677Z,0.00
2023-05-18T03:06:32.642Z,4.00
2023-05-18T03:07:32.639Z,4.00
2023-05-18T03:08:32.619Z,8.00
2023-05-18T03:09:32.611Z,4.00
2023-05-18T03:10:32.621Z,8.00
2023-05-18T03:11:32.597Z,8.00
2023-05-18T03:12:32.570Z,8.00
2023-05-18T03:13:32.575Z,12.00
2023-05-18T03:14:32.576Z,12.00
2023-05-18T03:15:32.810Z,16.00
2023-05-18T03:16:32.572Z,16.00
2023-05-18T03:17:32.595Z,20.00
2023-05-18T03:18:32.596Z,24.00
2023-05-18T03:19:32.539Z,24.00
2023-05-18T03:20:32.489Z,28.00
2023-05-18T03:21:32.491Z,32.00
2023-05-18T03:22:32.473Z,40.00
2023-05-18T03:23:32.475Z,44.00
2023-05-18T03:24:32.455Z,48.00
2023-05-18T03:25:32.613Z,56.00
2023-05-18T03:26:32.437Z,64.00
2023-05-18T03:27:32.422Z,76.00
2023-05-18T03:28:32.423Z,84.00
2023-05-18T03:29:32.418Z,92.00
2023-05-18T03:30:32.380Z,100.00
2023-05-18T03:31:32.415Z,116.00
2023-05-18T03:32:32.375Z,128.00
2023-05-18T03:33:32.375Z,144.00
2023-05-18T03:34:32.338Z,160.00
2023-05-18T03:35:32.479Z,172.00
2023-05-18T03:36:32.315Z,192.00
2023-05-18T03:37:32.314Z,208.00
2023-05-18T03:38:32.303Z,228.00
2023-05-18T03:39:32.291Z,252.00
2023-05-18T03:40:32.274Z,276.00
2023-05-18T03:41:32.272Z,300.00
2023-05-18T03:42:32.256Z,324.00
2023-05-18T03:43:32.250Z,352.00
2023-05-18T03:44:32.236Z,380.00
2023-05-18T03:45:32.349Z,408.00
2023-05-18T03:46:32.254Z,444.00
2023-05-18T03:47:32.257Z,472.00
2023-05-18T03:48:32.192Z,508.00
2023-05-18T03:49:32.183Z,544.00
2023-05-18T03:50:32.173Z,580.00
2023-05-18T03:51:32.160Z,616.00
2023-05-18T03:52:32.152Z,652.00
2023-05-18T03:53:32.142Z,696.00
2023-05-18T03:54:32.116Z,736.00
2023-05-18T03:55:32.309Z,776.00
2023-05-18T03:56:32.111Z,820.00
2023-05-18T03:57:32.091Z,868.00
2023-05-18T03:58:32.083Z,912.00
2023-05-18T03:59:32.078Z,956.00
2023-05-18T04:00:32.053Z,1004.00
2023-05-18T04:01:32.145Z,1052.00
2023-05-18T04:02:32.080Z,1100.00
2023-05-18T04:03:32.095Z,1148.00
2023-05-18T04:04:32.018Z,1200.00
2023-05-18T04:05:32.222Z,1252.00
2023-05-18T04:06:32.000Z,1304.00
2023-05-18T04:07:31.989Z,1360.00
2023-05-18T04:08:31.974Z,1424.00
2023-05-18T04:09:31.965Z,1484.00
2023-05-18T04:10:31.970Z,1540.00
2023-05-18T04:11:31.942Z,1600.00
2023-05-18T04:12:32.024Z,1644.00
2023-05-18T04:13:31.927Z,1684.00
2023-05-18T04:14:31.906Z,1748.00
2023-05-18T04:15:32.051Z,1792.00
2023-05-18T04:16:31.926Z,1840.00
2023-05-18T04:17:31.896Z,1892.00
2023-05-18T04:18:31.877Z,1944.00
2023-05-18T04:19:32.013Z,1996.00
2023-05-18T04:20:31.870Z,2048.00
2023-05-18T04:21:31.845Z,2104.00
2023-05-18T04:22:31.821Z,2184.00
2023-05-18T04:23:31.813Z,2264.00
2023-05-18T04:24:31.813Z,2344.00
2023-05-18T04:25:31.991Z,2392.00
2023-05-18T04:26:31.776Z,2408.00
2023-05-18T04:27:31.767Z,2448.00
2023-05-18T04:28:31.755Z,2488.00
2023-05-18T04:29:31.763Z,2536.00
2023-05-18T04:30:31.737Z,2596.00
2023-05-18T04:31:31.767Z,2644.00
2023-05-18T04:32:31.721Z,2700.00
2023-05-18T04:33:31.712Z,2784.00
2023-05-18T04:34:31.694Z,2836.00
2023-05-18T04:35:32.249Z,2896.00
2023-05-18T04:36:31.673Z,2968.00
2023-05-18T04:37:31.669Z,2996.00
2023-05-18T04:38:31.657Z,3032.00
2023-05-18T04:39:31.650Z,3076.00
2023-05-18T04:40:31.628Z,3132.00
2023-05-18T04:41:31.619Z,3256.00
2023-05-18T04:42:31.599Z,3352.00
2023-05-18T04:43:31.627Z,3340.00
2023-05-18T04:44:31.592Z,3404.00
2023-05-18T04:45:31.760Z,3464.00
2023-05-18T04:46:31.595Z,3484.00
2023-05-18T04:47:31.599Z,3496.00
2023-05-18T04:48:31.543Z,3524.00
2023-05-18T04:49:31.539Z,3576.00
2023-05-18T04:50:31.520Z,3632.00
2023-05-18T04:51:31.513Z,3700.00
2023-05-18T04:52:31.502Z,3780.00
2023-05-18T04:53:31.507Z,3840.00
2023-05-18T04:54:31.472Z,3912.00
2023-05-18T04:55:31.727Z,3916.00
2023-05-18T04:56:31.470Z,3932.00
2023-05-18T04:57:31.455Z,3980.00
2023-05-18T04:58:31.441Z,4024.00
2023-05-18T04:59:31.431Z,4084.00
2023-05-18T05:00:31.413Z,4140.00
2023-05-18T05:01:31.507Z,4208.00
2023-05-18T05:02:31.462Z,4248.00
2023-05-18T05:03:31.579Z,4296.00
2023-05-18T05:04:31.377Z,4340.00
2023-05-18T05:05:31.613Z,4396.00
2023-05-18T05:06:31.346Z,4444.00
2023-05-18T05:07:31.358Z,4504.00
2023-05-18T05:08:31.320Z,4556.00
2023-05-18T05:09:31.314Z,4604.00
2023-05-18T05:10:31.305Z,4656.00
2023-05-18T05:11:31.317Z,4708.00
2023-05-18T05:12:31.274Z,4768.00
2023-05-18T05:13:31.274Z,4828.00
2023-05-18T05:14:31.262Z,4872.00
2023-05-18T05:15:31.454Z,4920.00
2023-05-18T05:16:31.505Z,4976.00
2023-05-18T05:17:31.258Z,5048.00
2023-05-18T05:18:31.214Z,5092.00
2023-05-18T05:19:31.499Z,5140.00
2023-05-18T05:20:31.196Z,5224.00
2023-05-18T05:21:31.225Z,5296.00
2023-05-18T05:22:31.230Z,5308.00
2023-05-18T05:23:31.169Z,5408.00
2023-05-18T05:24:31.144Z,5460.00
2023-05-18T05:25:31.434Z,5496.00
2023-05-18T05:26:31.129Z,5532.00
2023-05-18T05:27:31.134Z,5600.00
2023-05-18T05:28:31.105Z,5628.00
2023-05-18T05:29:31.095Z,5660.00
2023-05-18T05:30:31.101Z,5808.00
2023-05-18T05:31:31.168Z,6036.00
2023-05-18T05:32:31.074Z,6492.00
2023-05-18T05:33:31.047Z,7128.00
2023-05-18T05:34:31.071Z,7136.00
2023-05-18T05:35:33.350Z,6844.00
2023-05-18T05:36:31.027Z,8336.00
2023-05-18T05:37:31.010Z,9284.00
2023-05-18T05:38:31.210Z,8788.00
2023-05-18T05:39:31.022Z,8736.00
2023-05-18T05:40:30.987Z,8540.00
2023-05-18T05:41:32.401Z,8884.00
2023-05-18T05:42:30.956Z,9896.00
2023-05-18T05:43:30.953Z,13016.00
2023-05-18T05:44:30.953Z,15584.00
2023-05-18T05:45:31.212Z,15712.00
2023-05-18T05:46:30.952Z,15968.00
2023-05-18T05:47:30.966Z,16448.00
2023-05-18T05:48:30.908Z,17024.00
2023-05-18T05:49:30.892Z,17248.00
2023-05-18T05:50:30.882Z,17568.00
2023-05-18T05:51:30.850Z,18912.00
2023-05-18T05:52:30.851Z,22048.00
2023-05-18T05:53:30.861Z,25888.00
2023-05-18T05:54:31.019Z,29536.00
2023-05-18T05:55:30.998Z,29536.00
2023-05-18T05:56:30.818Z,24096.00
2023-05-18T05:57:30.799Z,21344.00
2023-05-18T05:58:30.799Z,21312.00
2023-05-18T05:59:30.796Z,20736.00
2023-05-18T06:00:30.769Z,20352.00
2023-05-18T06:01:30.794Z,20384.00
2023-05-18T06:02:31.006Z,20704.00
2023-05-18T06:03:31.416Z,21216.00
2023-05-18T06:04:30.766Z,21344.00
2023-05-18T06:05:30.942Z,21504.00
2023-05-18T06:06:30.703Z,21696.00
2023-05-18T06:07:30.712Z,22336.00
2023-05-18T06:08:30.707Z,22848.00
2023-05-18T06:09:30.660Z,22912.00
2023-05-18T06:10:30.660Z,23552.00
2023-05-18T06:11:30.675Z,23904.00
2023-05-18T06:12:30.645Z,24032.00
2023-05-18T06:13:30.633Z,24192.00
2023-05-18T06:14:30.613Z,24736.00
2023-05-18T06:15:30.777Z,24960.00
2023-05-18T06:16:31.591Z,25152.00
2023-05-18T06:17:30.602Z,25728.00
2023-05-18T06:18:30.565Z,25952.00
2023-05-18T06:19:30.551Z,26304.00
2023-05-18T06:20:30.575Z,26400.00
2023-05-18T06:21:30.721Z,26560.00
2023-05-18T06:22:30.591Z,26976.00
2023-05-18T06:23:30.512Z,27232.00
2023-05-18T06:24:30.520Z,27552.00
2023-05-18T06:25:30.682Z,27904.00
2023-05-18T06:26:30.510Z,28256.00
2023-05-18T06:27:30.474Z,28800.00
2023-05-18T06:28:30.460Z,29248.00
2023-05-18T06:29:30.448Z,29280.00
2023-05-18T06:30:30.450Z,29760.00
2023-05-18T06:31:30.758Z,30400.00
2023-05-18T06:32:30.500Z,30816.00
2023-05-18T06:33:30.407Z,31360.00
2023-05-18T06:34:30.401Z,31840.00
2023-05-18T06:35:30.578Z,32352.00
2023-05-18T06:36:30.375Z,32288.00
2023-05-18T06:37:30.362Z,32064.00
2023-05-18T06:38:30.363Z,32704.00
2023-05-18T06:39:30.339Z,33120.00
2023-05-18T06:40:30.345Z,33792.00
2023-05-18T06:41:30.317Z,34240.00
2023-05-18T06:42:30.315Z,34848.00
2023-05-18T06:43:30.303Z,35680.00
2023-05-18T06:44:30.312Z,36480.00
2023-05-18T06:45:30.398Z,36480.00
2023-05-18T06:46:30.331Z,36480.00
2023-05-18T06:47:30.277Z,36832.00
2023-05-18T06:48:30.250Z,37408.00
2023-05-18T06:49:30.245Z,37472.00
2023-05-18T06:50:30.232Z,37536.00
2023-05-18T06:51:30.222Z,38528.00
2023-05-18T06:52:30.201Z,39168.00
2023-05-18T06:53:30.205Z,39616.00
2023-05-18T06:54:30.181Z,39648.00
2023-05-18T06:55:30.345Z,39168.00
2023-05-18T06:56:30.189Z,39904.00
2023-05-18T06:57:30.198Z,40768.00
2023-05-18T06:58:30.152Z,40416.00
2023-05-18T06:59:30.142Z,40512.00
2023-05-18T07:00:30.117Z,41088.00
2023-05-18T07:01:30.151Z,41216.00
2023-05-18T07:02:30.159Z,41056.00
2023-05-18T07:03:30.190Z,41536.00
2023-05-18T07:04:30.080Z,43360.00
2023-05-18T07:05:30.302Z,43584.00
2023-05-18T07:06:30.050Z,43840.00
2023-05-18T07:07:30.063Z,43808.00
2023-05-18T07:08:30.403Z,43424.00
2023-05-18T07:09:30.023Z,44192.00
2023-05-18T07:10:30.008Z,45120.00
2023-05-18T07:11:30.039Z,46112.00
2023-05-18T07:12:29.992Z,47872.00
2023-05-18T07:13:29.992Z,49728.00
2023-05-18T07:14:29.966Z,49856.00
2023-05-18T07:15:30.407Z,49056.00
2023-05-18T07:16:30.008Z,48576.00
2023-05-18T07:17:30.017Z,49568.00
2023-05-18T07:18:29.916Z,49920.00
2023-05-18T07:19:30.000Z,49600.00
2023-05-18T07:20:29.906Z,48864.00
2023-05-18T07:21:29.894Z,48928.00
2023-05-18T07:22:29.923Z,49120.00
2023-05-18T07:23:29.881Z,50048.00
2023-05-18T07:24:29.864Z,52928.00
2023-05-18T07:25:30.049Z,53632.00
2023-05-18T07:26:29.854Z,53056.00
2023-05-18T07:27:29.832Z,52608.00
2023-05-18T07:28:29.833Z,53120.00
2023-05-18T07:29:29.813Z,54048.00
2023-05-18T07:30:29.803Z,53760.00
2023-05-18T07:31:29.896Z,53600.00
2023-05-18T07:32:29.782Z,54592.00
2023-05-18T07:33:29.763Z,55040.00
2023-05-18T07:34:29.755Z,54144.00
2023-05-18T07:35:29.983Z,54208.00
2023-05-18T07:36:29.743Z,55712.00
2023-05-18T07:37:29.722Z,58176.00
2023-05-18T07:38:29.706Z,57344.00
2023-05-18T07:39:29.700Z,57760.00
2023-05-18T07:40:29.697Z,57344.00
2023-05-18T07:41:29.746Z,58080.00
2023-05-18T07:42:29.665Z,59328.00
2023-05-18T07:43:29.660Z,60544.00
2023-05-18T07:44:29.643Z,59328.00
2023-05-18T07:45:29.975Z,57120.00
2023-05-18T07:46:29.656Z,57664.00
2023-05-18T07:47:29.745Z,59200.00
2023-05-18T07:48:29.599Z,60352.00
2023-05-18T07:49:29.595Z,61152.00
2023-05-18T07:50:29.708Z,62080.00
2023-05-18T07:51:29.564Z,64352.00
2023-05-18T07:52:29.554Z,65632.00
2023-05-18T07:53:29.552Z,66208.00
2023-05-18T07:54:29.538Z,63968.00
2023-05-18T07:55:29.854Z,62048.00
2023-05-18T07:56:29.534Z,62144.00
2023-05-18T07:57:29.514Z,63744.00
2023-05-18T07:58:29.529Z,68608.00
2023-05-18T07:59:29.521Z,70528.00
2023-05-18T08:00:29.469Z,73152.00
2023-05-18T08:01:29.465Z,71520.00
2023-05-18T08:02:30.849Z,68384.00
2023-05-18T08:03:29.572Z,64832.00
2023-05-18T08:04:29.493Z,65856.00
2023-05-18T08:05:29.541Z,66432.00
2023-05-18T08:06:29.514Z,68064.00
2023-05-18T08:07:29.412Z,69952.00
2023-05-18T08:08:29.398Z,68864.00
2023-05-18T08:09:29.387Z,70176.00
2023-05-18T08:10:29.375Z,72352.00
2023-05-18T08:11:29.368Z,71456.00
2023-05-18T08:12:29.338Z,70080.00
2023-05-18T08:13:30.420Z,68352.00
2023-05-18T08:14:29.340Z,70656.00
2023-05-18T08:15:29.577Z,71296.00
2023-05-18T08:16:29.319Z,73248.00
2023-05-18T08:17:29.349Z,72864.00
2023-05-18T08:18:29.288Z,73376.00
2023-05-18T08:19:29.355Z,73600.00
2023-05-18T08:20:29.255Z,73760.00
2023-05-18T08:21:29.254Z,75264.00
2023-05-18T08:22:29.245Z,75296.00
2023-05-18T08:23:29.241Z,73856.00
2023-05-18T08:24:29.214Z,73856.00
2023-05-18T08:25:29.361Z,71840.00
2023-05-18T08:26:29.197Z,73344.00
2023-05-18T08:27:29.197Z,72672.00
2023-05-18T08:28:29.165Z,72544.00
2023-05-18T08:29:29.166Z,72448.00
2023-05-18T08:30:29.158Z,73440.00
2023-05-18T08:31:29.170Z,71392.00
2023-05-18T08:32:29.243Z,72160.00
2023-05-18T08:33:29.117Z,72704.00
2023-05-18T08:34:29.114Z,74400.00
2023-05-18T08:35:29.212Z,71488.00
2023-05-18T08:36:29.098Z,74112.00
2023-05-18T08:37:29.098Z,75104.00
2023-05-18T08:38:29.081Z,76320.00
2023-05-18T08:39:29.052Z,78400.00
2023-05-18T08:40:29.061Z,80704.00
2023-05-18T08:41:29.044Z,80928.00
2023-05-18T08:42:41.464Z,83872.00
2023-05-18T08:43:30.263Z,83712.00
2023-05-18T08:44:29.006Z,86240.00
2023-05-18T08:45:29.277Z,89920.00
2023-05-18T08:46:29.008Z,85856.00
2023-05-18T08:47:28.995Z,83328.00
2023-05-18T08:48:29.054Z,81600.00
2023-05-18T08:49:28.951Z,82464.00
2023-05-18T08:50:29.146Z,87840.00
2023-05-18T08:51:28.946Z,87200.00
2023-05-18T08:52:28.927Z,86880.00
2023-05-18T08:53:28.917Z,89600.00
2023-05-18T08:54:28.898Z,91456.00
2023-05-18T08:55:29.007Z,100928.00
2023-05-18T08:56:28.885Z,98752.00
2023-05-18T08:57:28.875Z,103968.00
2023-05-18T08:58:28.859Z,103296.00
2023-05-18T08:59:28.856Z,106272.00
2023-05-18T09:00:28.887Z,105760.00
2023-05-18T09:01:29.378Z,105728.00
2023-05-18T09:02:28.854Z,104192.00
2023-05-18T09:03:28.812Z,108800.00
2023-05-18T09:04:28.838Z,105248.00
2023-05-18T09:05:28.882Z,104832.00
2023-05-18T09:06:28.797Z,106848.00
2023-05-18T09:07:28.767Z,109312.00
2023-05-18T09:08:28.760Z,110944.00
2023-05-18T09:09:28.758Z,113056.00
2023-05-18T09:10:28.732Z,110208.00
2023-05-18T09:11:28.760Z,109312.00
2023-05-18T09:12:28.736Z,103232.00
2023-05-18T09:13:28.706Z,107072.00
2023-05-18T09:14:28.717Z,110112.00
2023-05-18T09:15:28.883Z,111616.00
2023-05-18T09:16:28.807Z,111968.00
2023-05-18T09:17:28.694Z,115936.00
2023-05-18T09:18:28.769Z,108160.00
2023-05-18T09:19:28.776Z,108480.00
2023-05-18T09:20:28.637Z,111456.00
2023-05-18T09:21:28.618Z,105152.00
2023-05-18T09:22:28.629Z,112384.00
2023-05-18T09:23:28.855Z,114560.00
2023-05-18T09:24:28.653Z,109120.00
2023-05-18T09:25:28.832Z,112928.00
2023-05-18T09:26:28.575Z,111296.00
2023-05-18T09:27:28.566Z,105600.00
2023-05-18T09:28:28.571Z,114048.00
2023-05-18T09:29:28.543Z,108800.00
2023-05-18T09:30:28.543Z,104192.00
2023-05-18T09:31:28.561Z,111744.00
2023-05-18T09:32:28.547Z,102656.00
2023-05-18T09:33:28.559Z,105408.00
2023-05-18T09:34:28.489Z,111840.00
2023-05-18T09:35:28.572Z,107136.00
2023-05-18T09:36:28.484Z,119552.00
2023-05-18T09:37:28.476Z,122240.00
2023-05-18T09:38:28.459Z,126496.00
2023-05-18T09:39:28.440Z,120544.00
2023-05-18T09:40:28.446Z,120832.00
2023-05-18T09:41:28.457Z,118848.00
2023-05-18T09:42:28.415Z,121056.00
2023-05-18T09:43:28.406Z,119488.00
2023-05-18T09:44:28.391Z,120384.00
2023-05-18T09:45:28.687Z,118688.00
2023-05-18T09:46:28.426Z,118272.00
2023-05-18T09:47:28.427Z,119840.00
2023-05-18T09:48:28.359Z,123520.00
2023-05-18T09:49:28.328Z,121760.00
2023-05-18T09:50:28.343Z,115456.00
2023-05-18T09:51:28.325Z,112640.00
2023-05-18T09:52:28.313Z,116128.00
2023-05-18T09:53:28.294Z,117952.00
2023-05-18T09:54:28.295Z,109888.00
2023-05-18T09:55:28.343Z,120640.00
2023-05-18T09:56:28.289Z,117568.00
2023-05-18T09:57:28.252Z,122304.00
2023-05-18T09:58:28.250Z,119232.00
2023-05-18T09:59:28.241Z,124320.00
2023-05-18T10:00:28.242Z,120160.00
2023-05-18T10:01:28.239Z,126112.00
2023-05-18T10:02:28.255Z,122368.00
2023-05-18T10:03:28.192Z,119936.00
2023-05-18T10:04:28.237Z,125312.00
2023-05-18T10:05:28.296Z,118528.00
2023-05-18T10:06:28.178Z,120128.00
2023-05-18T10:07:28.158Z,118720.00
2023-05-18T10:08:28.153Z,117664.00
2023-05-18T10:09:28.152Z,121856.00
2023-05-18T10:10:28.153Z,123744.00
2023-05-18T10:11:28.123Z,117760.00
2023-05-18T10:12:28.109Z,132864.00
2023-05-18T10:13:28.103Z,126656.00
2023-05-18T10:14:30.544Z,118976.00
2023-05-18T10:15:28.092Z,134784.00
2023-05-18T10:16:28.115Z,128832.00
2023-05-18T10:17:28.147Z,128192.00
2023-05-18T10:18:28.085Z,38560.00
2023-05-18T10:19:28.097Z,127328.00
2023-05-18T10:20:28.043Z,58080.00
2023-05-18T10:21:28.022Z,81440.00
2023-05-18T10:22:28.017Z,62528.00
2023-05-18T10:23:28.017Z,135424.00
2023-05-18T10:24:28.002Z,119136.00
2023-05-18T10:25:27.981Z,38432.00
2023-05-18T10:26:27.980Z,48224.00
2023-05-18T10:27:28.000Z,140000.00
2023-05-18T10:28:28.024Z,80512.00
2023-05-18T10:29:28.020Z,133344.00
2023-05-18T10:30:27.933Z,141472.00
2023-05-18T10:31:28.040Z,81760.00
2023-05-18T10:32:27.941Z,138368.00
2023-05-18T10:33:29.981Z,135840.00
2023-05-18T10:34:27.906Z,127840.00
2023-05-18T10:35:27.881Z,134688.00
2023-05-18T10:36:27.869Z,133056.00
2023-05-18T10:37:27.879Z,48672.00
2023-05-18T10:38:27.928Z,60448.00
2023-05-18T10:39:27.835Z,128768.00
2023-05-18T10:40:27.836Z,119968.00
2023-05-18T10:41:27.834Z,124448.00
2023-05-18T10:42:27.820Z,124064.00
2023-05-18T10:43:27.952Z,116576.00
2023-05-18T10:44:27.808Z,44064.00
2023-05-18T10:45:27.788Z,74400.00
2023-05-18T10:46:27.870Z,83136.00
2023-05-18T10:47:28.109Z,104928.00
2023-05-18T10:48:27.788Z,120256.00
2023-05-18T10:49:27.737Z,129024.00
2023-05-18T10:50:27.731Z,130400.00
2023-05-18T10:51:27.726Z,120288.00
2023-05-18T10:52:27.758Z,124352.00
2023-05-18T10:53:27.709Z,122944.00
2023-05-18T10:54:27.705Z,116384.00
2023-05-18T10:55:27.683Z,129152.00
2023-05-18T10:56:27.693Z,127904.00
2023-05-18T10:57:27.679Z,130720.00
2023-05-18T10:58:27.697Z,127936.00
2023-05-18T10:59:27.653Z,131136.00
2023-05-18T11:00:27.658Z,133216.00
2023-05-18T11:01:27.738Z,123712.00
2023-05-18T11:02:27.654Z,120608.00
2023-05-18T11:03:27.655Z,130528.00
2023-05-18T11:04:27.651Z,122656.00
2023-05-18T11:05:27.733Z,122592.00
2023-05-18T11:06:27.696Z,124544.00
2023-05-18T11:07:27.633Z,127552.00
2023-05-18T11:08:27.625Z,110336.00
2023-05-18T11:09:27.600Z,122080.00
2023-05-18T11:10:27.559Z,120288.00
2023-05-18T11:11:27.595Z,124992.00
2023-05-18T11:12:27.550Z,127424.00
2023-05-18T11:13:27.713Z,113792.00
2023-05-18T11:14:27.504Z,116704.00
2023-05-18T11:15:27.500Z,123040.00
2023-05-18T11:16:29.941Z,118400.00
2023-05-18T11:17:27.579Z,122784.00
2023-05-18T11:18:27.465Z,118976.00
2023-05-18T11:19:27.569Z,122560.00
2023-05-18T11:20:27.652Z,118208.00
2023-05-18T11:21:27.442Z,124736.00
2023-05-18T11:22:29.844Z,120672.00
2023-05-18T11:23:27.460Z,108640.00
2023-05-18T11:24:27.733Z,118304.00
2023-05-18T11:25:27.404Z,114976.00
2023-05-18T11:26:27.486Z,116064.00
2023-05-18T11:27:27.483Z,125024.00
2023-05-18T11:28:27.401Z,136736.00
2023-05-18T11:29:27.411Z,127360.00
2023-05-18T11:30:27.353Z,115744.00
2023-05-18T11:31:27.428Z,129184.00
2023-05-18T11:32:30.442Z,126464.00
2023-05-18T11:33:27.383Z,110368.00
2023-05-18T11:34:27.352Z,125184.00
2023-05-18T11:35:27.322Z,123232.00
2023-05-18T11:36:27.332Z,119456.00
2023-05-18T11:37:27.402Z,126336.00
2023-05-18T11:38:27.370Z,129856.00
2023-05-18T11:39:27.417Z,124576.00
2023-05-18T11:40:27.255Z,126176.00
2023-05-18T11:41:27.246Z,120480.00
2023-05-18T11:42:27.274Z,116160.00
2023-05-18T11:43:27.285Z,120480.00
2023-05-18T11:44:27.220Z,113664.00
2023-05-18T11:45:27.212Z,113184.00
2023-05-18T11:46:27.226Z,122464.00
2023-05-18T11:47:27.234Z,115456.00
2023-05-18T11:48:27.335Z,119712.00
2023-05-18T11:49:27.193Z,120128.00
2023-05-18T11:50:27.188Z,115648.00
2023-05-18T11:51:27.344Z,121440.00
2023-05-18T11:52:27.201Z,114304.00
2023-05-18T11:53:27.270Z,118112.00
2023-05-18T11:54:27.119Z,121088.00
2023-05-18T11:55:27.128Z,114432.00
2023-05-18T11:56:27.104Z,118464.00
2023-05-18T11:57:27.108Z,112736.00
2023-05-18T11:58:27.321Z,115648.00
2023-05-18T11:59:27.418Z,120064.00
2023-05-18T12:00:28.334Z,112992.00
2023-05-18T12:01:27.118Z,115680.00
2023-05-18T12:02:27.783Z,110848.00
2023-05-18T12:03:27.469Z,112768.00
2023-05-18T12:04:27.685Z,119520.00
2023-05-18T12:05:27.516Z,122816.00
2023-05-18T12:06:28.518Z,135776.00
2023-05-18T12:07:28.318Z,124928.00
2023-05-18T12:08:27.568Z,121728.00